sensor_id;sensor_type;location;lat;lon;timestamp;temperature;humidity
51655;DHT22;37732;53.106;7.030;2023-06-24T00:01:01;17.40;99.90
51655;DHT22;37732;53.106;7.030;2023-06-24T00:03:26;17.40;99.90
51655;DHT22;37732;53.106;7.030;2023-06-24T00:05:52;17.30;99.90
51655;DHT22;37732;53.106;7.030;2023-06-24T00:08:18;17.30;99.90
51655;DHT22;37732;53.106;7.030;2023-06-24T00:10:45;17.20;99.90
51655;DHT22;37732;53.106;7.030;2023-06-24T00:13:12;17.20;99.90
51655;DHT22;37732;53.106;7.030;2023-06-24T00:15:37;17.10;99.90
51655;DHT22;37732;53.106;7.030;2023-06-24T00:18:11;17.10;99.90
51655;DHT22;37732;53.106;7.030;2023-06-24T00:20:37;17.10;99.90
51655;DHT22;37732;53.106;7.030;2023-06-24T00:23:02;17.00;99.90
51655;DHT22;37732;53.106;7.030;2023-06-24T00:25:29;17.00;99.90
51655;DHT22;37732;53.106;7.030;2023-06-24T00:27:54;17.00;99.90
51655;DHT22;37732;53.106;7.030;2023-06-24T00:30:20;16.90;99.90
51655;DHT22;37732;53.106;7.030;2023-06-24T00:32:46;16.90;99.90
51655;DHT22;37732;53.106;7.030;2023-06-24T00:35:11;16.80;99.90
51655;DHT22;37732;53.106;7.030;2023-06-24T00:37:37;16.80;99.90
51655;DHT22;37732;53.106;7.030;2023-06-24T00:40:04;16.70;99.90
51655;DHT22;37732;53.106;7.030;2023-06-24T00:42:30;16.70;99.90
51655;DHT22;37732;53.106;7.030;2023-06-24T00:44:56;16.60;99.90
51655;DHT22;37732;53.106;7.030;2023-06-24T00:47:21;16.50;99.90
51655;DHT22;37732;53.106;7.030;2023-06-24T00:49:47;16.60;99.90
51655;DHT22;37732;53.106;7.030;2023-06-24T00:52:13;16.40;99.90
51655;DHT22;37732;53.106;7.030;2023-06-24T00:54:43;16.30;99.90
51655;DHT22;37732;53.106;7.030;2023-06-24T00:57:08;16.30;99.90
51655;DHT22;37732;53.106;7.030;2023-06-24T00:59:34;16.30;99.90
51655;DHT22;37732;53.106;7.030;2023-06-24T01:02:00;16.30;99.90
51655;DHT22;37732;53.106;7.030;2023-06-24T01:04:27;16.20;99.90
51655;DHT22;37732;53.106;7.030;2023-06-24T01:06:53;16.20;99.90
51655;DHT22;37732;53.106;7.030;2023-06-24T01:09:20;16.20;99.90
51655;DHT22;37732;53.106;7.030;2023-06-24T01:11:45;16.10;99.90
51655;DHT22;37732;53.106;7.030;2023-06-24T01:14:11;16.00;99.90
51655;DHT22;37732;53.106;7.030;2023-06-24T01:16:53;16.00;99.90
51655;DHT22;37732;53.106;7.030;2023-06-24T01:27:39;15.90;99.90
51655;DHT22;37732;53.106;7.030;2023-06-24T01:32:53;15.80;99.90
51655;DHT22;37732;53.106;7.030;2023-06-24T01:35:21;15.70;99.90
51655;DHT22;37732;53.106;7.030;2023-06-24T01:37:50;15.70;99.90
51655;DHT22;37732;53.106;7.030;2023-06-24T01:42:51;15.70;99.90
51655;DHT22;37732;53.106;7.030;2023-06-24T01:45:25;15.70;99.90
51655;DHT22;37732;53.106;7.030;2023-06-24T01:47:59;15.70;99.90
51655;DHT22;37732;53.106;7.030;2023-06-24T01:50:26;15.70;99.90
51655;DHT22;37732;53.106;7.030;2023-06-24T01:52:52;15.70;99.90
51655;DHT22;37732;53.106;7.030;2023-06-24T01:55:19;15.60;99.90
51655;DHT22;37732;53.106;7.030;2023-06-24T01:57:46;15.60;99.90
51655;DHT22;37732;53.106;7.030;2023-06-24T02:00:13;15.50;99.90
51655;DHT22;37732;53.106;7.030;2023-06-24T02:02:39;15.50;99.90
51655;DHT22;37732;53.106;7.030;2023-06-24T02:05:05;15.50;99.90
51655;DHT22;37732;53.106;7.030;2023-06-24T02:07:31;15.50;99.90
51655;DHT22;37732;53.106;7.030;2023-06-24T02:09:58;15.50;99.90
51655;DHT22;37732;53.106;7.030;2023-06-24T02:12:25;15.40;99.90
51655;DHT22;37732;53.106;7.030;2023-06-24T02:14:52;15.40;99.90
51655;DHT22;37732;53.106;7.030;2023-06-24T02:17:19;15.30;99.90
51655;DHT22;37732;53.106;7.030;2023-06-24T02:19:45;15.40;99.90
51655;DHT22;37732;53.106;7.030;2023-06-24T02:22:12;15.30;99.90
51655;DHT22;37732;53.106;7.030;2023-06-24T02:24:37;15.30;99.90
51655;DHT22;37732;53.106;7.030;2023-06-24T02:27:04;15.30;99.90
51655;DHT22;37732;53.106;7.030;2023-06-24T02:29:30;15.20;99.90
51655;DHT22;37732;53.106;7.030;2023-06-24T02:31:56;15.20;99.90
51655;DHT22;37732;53.106;7.030;2023-06-24T02:34:22;15.20;99.90
51655;DHT22;37732;53.106;7.030;2023-06-24T02:36:48;15.20;99.90
51655;DHT22;37732;53.106;7.030;2023-06-24T02:39:14;15.10;99.90
51655;DHT22;37732;53.106;7.030;2023-06-24T02:41:39;15.10;99.90
51655;DHT22;37732;53.106;7.030;2023-06-24T02:44:05;15.10;99.90
51655;DHT22;37732;53.106;7.030;2023-06-24T02:46:30;15.10;99.90
51655;DHT22;37732;53.106;7.030;2023-06-24T02:48:58;15.00;99.90
51655;DHT22;37732;53.106;7.030;2023-06-24T02:51:25;15.00;99.90
51655;DHT22;37732;53.106;7.030;2023-06-24T02:53:51;15.00;99.90
51655;DHT22;37732;53.106;7.030;2023-06-24T02:56:17;15.00;99.90
51655;DHT22;37732;53.106;7.030;2023-06-24T02:58:46;15.00;99.90
51655;DHT22;37732;53.106;7.030;2023-06-24T03:01:12;14.90;99.90
51655;DHT22;37732;53.106;7.030;2023-06-24T03:03:38;14.90;99.90
51655;DHT22;37732;53.106;7.030;2023-06-24T03:06:05;14.90;99.90
51655;DHT22;37732;53.106;7.030;2023-06-24T03:08:30;14.90;99.90
51655;DHT22;37732;53.106;7.030;2023-06-24T03:10:56;14.90;99.90
51655;DHT22;37732;53.106;7.030;2023-06-24T03:13:22;14.90;99.90
51655;DHT22;37732;53.106;7.030;2023-06-24T03:15:48;14.80;99.90
51655;DHT22;37732;53.106;7.030;2023-06-24T03:18:14;14.80;99.90
51655;DHT22;37732;53.106;7.030;2023-06-24T03:20:40;14.80;99.90
51655;DHT22;37732;53.106;7.030;2023-06-24T03:23:06;14.80;99.90
51655;DHT22;37732;53.106;7.030;2023-06-24T03:25:32;14.80;99.90
51655;DHT22;37732;53.106;7.030;2023-06-24T03:27:58;14.80;99.90
51655;DHT22;37732;53.106;7.030;2023-06-24T03:30:26;14.80;99.90
51655;DHT22;37732;53.106;7.030;2023-06-24T03:32:52;14.80;99.90
51655;DHT22;37732;53.106;7.030;2023-06-24T03:35:18;14.80;99.90
51655;DHT22;37732;53.106;7.030;2023-06-24T03:37:43;14.80;99.90
51655;DHT22;37732;53.106;7.030;2023-06-24T03:40:09;14.80;99.90
51655;DHT22;37732;53.106;7.030;2023-06-24T03:42:35;14.80;99.90
51655;DHT22;37732;53.106;7.030;2023-06-24T03:45:02;14.80;99.90
51655;DHT22;37732;53.106;7.030;2023-06-24T03:47:27;14.80;99.90
51655;DHT22;37732;53.106;7.030;2023-06-24T03:49:53;14.80;99.90
51655;DHT22;37732;53.106;7.030;2023-06-24T03:52:19;14.80;99.90
51655;DHT22;37732;53.106;7.030;2023-06-24T03:54:44;14.80;99.90
51655;DHT22;37732;53.106;7.030;2023-06-24T03:57:11;14.80;99.90
51655;DHT22;37732;53.106;7.030;2023-06-24T03:59:36;14.80;99.90
51655;DHT22;37732;53.106;7.030;2023-06-24T04:02:02;14.80;99.90
51655;DHT22;37732;53.106;7.030;2023-06-24T04:04:28;14.90;99.90
51655;DHT22;37732;53.106;7.030;2023-06-24T04:06:53;14.90;99.90
51655;DHT22;37732;53.106;7.030;2023-06-24T04:09:19;14.90;99.90
51655;DHT22;37732;53.106;7.030;2023-06-24T04:11:44;14.90;99.90
51655;DHT22;37732;53.106;7.030;2023-06-24T04:14:10;14.80;99.90
51655;DHT22;37732;53.106;7.030;2023-06-24T04:16:35;14.90;99.90
51655;DHT22;37732;53.106;7.030;2023-06-24T04:19:01;14.90;99.90
51655;DHT22;37732;53.106;7.030;2023-06-24T04:21:27;14.90;99.90
51655;DHT22;37732;53.106;7.030;2023-06-24T04:23:53;14.90;99.90
51655;DHT22;37732;53.106;7.030;2023-06-24T04:26:19;14.90;99.90
51655;DHT22;37732;53.106;7.030;2023-06-24T04:28:45;15.00;99.90
51655;DHT22;37732;53.106;7.030;2023-06-24T04:31:11;14.90;99.90
51655;DHT22;37732;53.106;7.030;2023-06-24T04:33:36;15.00;99.90
51655;DHT22;37732;53.106;7.030;2023-06-24T04:36:02;15.10;99.90
51655;DHT22;37732;53.106;7.030;2023-06-24T04:38:27;15.10;99.90
51655;DHT22;37732;53.106;7.030;2023-06-24T04:40:53;15.20;99.90
51655;DHT22;37732;53.106;7.030;2023-06-24T04:43:19;15.20;99.90
51655;DHT22;37732;53.106;7.030;2023-06-24T04:45:44;15.30;99.90
51655;DHT22;37732;53.106;7.030;2023-06-24T04:48:10;15.30;99.90
51655;DHT22;37732;53.106;7.030;2023-06-24T04:50:35;15.30;99.90
51655;DHT22;37732;53.106;7.030;2023-06-24T04:53:01;15.40;99.90
51655;DHT22;37732;53.106;7.030;2023-06-24T04:55:27;15.40;99.90
51655;DHT22;37732;53.106;7.030;2023-06-24T04:57:55;15.50;99.90
51655;DHT22;37732;53.106;7.030;2023-06-24T05:00:21;15.50;99.90
51655;DHT22;37732;53.106;7.030;2023-06-24T05:02:49;15.50;99.90
51655;DHT22;37732;53.106;7.030;2023-06-24T05:05:15;15.60;99.90
51655;DHT22;37732;53.106;7.030;2023-06-24T05:07:40;15.70;99.90
51655;DHT22;37732;53.106;7.030;2023-06-24T05:10:06;15.70;99.90
51655;DHT22;37732;53.106;7.030;2023-06-24T05:12:32;15.80;99.90
51655;DHT22;37732;53.106;7.030;2023-06-24T05:14:58;15.90;99.90
51655;DHT22;37732;53.106;7.030;2023-06-24T05:17:23;16.00;99.90
51655;DHT22;37732;53.106;7.030;2023-06-24T05:19:49;16.10;99.90
51655;DHT22;37732;53.106;7.030;2023-06-24T05:22:14;16.10;99.90
51655;DHT22;37732;53.106;7.030;2023-06-24T05:24:40;16.30;99.90
51655;DHT22;37732;53.106;7.030;2023-06-24T05:30:29;16.40;99.90
51655;DHT22;37732;53.106;7.030;2023-06-24T05:32:54;16.60;99.90
51655;DHT22;37732;53.106;7.030;2023-06-24T05:35:20;16.70;99.90
51655;DHT22;37732;53.106;7.030;2023-06-24T05:37:45;16.90;99.90
51655;DHT22;37732;53.106;7.030;2023-06-24T05:40:11;17.00;99.90
51655;DHT22;37732;53.106;7.030;2023-06-24T05:42:38;17.10;99.90
51655;DHT22;37732;53.106;7.030;2023-06-24T05:45:03;17.20;99.90
51655;DHT22;37732;53.106;7.030;2023-06-24T05:47:29;17.40;99.90
51655;DHT22;37732;53.106;7.030;2023-06-24T05:49:55;17.50;99.90
51655;DHT22;37732;53.106;7.030;2023-06-24T05:52:20;17.60;99.90
51655;DHT22;37732;53.106;7.030;2023-06-24T05:54:46;17.70;99.90
51655;DHT22;37732;53.106;7.030;2023-06-24T05:57:11;17.90;99.90
51655;DHT22;37732;53.106;7.030;2023-06-24T05:59:37;18.10;99.90
51655;DHT22;37732;53.106;7.030;2023-06-24T06:02:03;18.20;99.90
51655;DHT22;37732;53.106;7.030;2023-06-24T06:04:28;18.40;99.90
51655;DHT22;37732;53.106;7.030;2023-06-24T06:06:54;18.50;99.90
51655;DHT22;37732;53.106;7.030;2023-06-24T06:09:20;18.70;99.90
51655;DHT22;37732;53.106;7.030;2023-06-24T06:11:45;18.80;99.90
51655;DHT22;37732;53.106;7.030;2023-06-24T06:14:11;19.00;99.90
51655;DHT22;37732;53.106;7.030;2023-06-24T06:16:36;19.20;99.90
51655;DHT22;37732;53.106;7.030;2023-06-24T06:19:02;19.40;99.90
51655;DHT22;37732;53.106;7.030;2023-06-24T06:21:28;19.50;99.90
51655;DHT22;37732;53.106;7.030;2023-06-24T06:23:53;19.70;99.90
51655;DHT22;37732;53.106;7.030;2023-06-24T06:26:19;20.00;99.90
51655;DHT22;37732;53.106;7.030;2023-06-24T06:28:44;20.30;99.90
51655;DHT22;37732;53.106;7.030;2023-06-24T06:31:12;20.50;99.90
51655;DHT22;37732;53.106;7.030;2023-06-24T06:33:38;20.70;99.90
51655;DHT22;37732;53.106;7.030;2023-06-24T06:36:03;20.90;99.90
51655;DHT22;37732;53.106;7.030;2023-06-24T06:38:29;21.00;99.90
51655;DHT22;37732;53.106;7.030;2023-06-24T06:40:55;21.10;99.90
51655;DHT22;37732;53.106;7.030;2023-06-24T06:43:20;21.30;99.90
51655;DHT22;37732;53.106;7.030;2023-06-24T06:45:46;21.50;99.90
51655;DHT22;37732;53.106;7.030;2023-06-24T06:48:12;21.60;99.90
51655;DHT22;37732;53.106;7.030;2023-06-24T06:50:38;21.80;99.90
51655;DHT22;37732;53.106;7.030;2023-06-24T06:53:03;22.10;99.90
51655;DHT22;37732;53.106;7.030;2023-06-24T06:55:29;22.40;99.90
51655;DHT22;37732;53.106;7.030;2023-06-24T06:57:54;22.60;99.90
51655;DHT22;37732;53.106;7.030;2023-06-24T07:00:20;22.70;99.90
51655;DHT22;37732;53.106;7.030;2023-06-24T07:02:46;22.70;99.90
51655;DHT22;37732;53.106;7.030;2023-06-24T07:05:12;22.90;99.90
51655;DHT22;37732;53.106;7.030;2023-06-24T07:07:37;22.90;99.90
51655;DHT22;37732;53.106;7.030;2023-06-24T07:10:04;23.10;99.90
51655;DHT22;37732;53.106;7.030;2023-06-24T07:12:29;23.20;99.90
51655;DHT22;37732;53.106;7.030;2023-06-24T07:14:56;23.30;99.90
51655;DHT22;37732;53.106;7.030;2023-06-24T07:17:22;23.50;99.90
51655;DHT22;37732;53.106;7.030;2023-06-24T07:19:47;23.60;99.90
51655;DHT22;37732;53.106;7.030;2023-06-24T07:22:13;23.50;99.90
51655;DHT22;37732;53.106;7.030;2023-06-24T07:24:39;23.40;99.90
51655;DHT22;37732;53.106;7.030;2023-06-24T07:27:05;23.50;99.90
51655;DHT22;37732;53.106;7.030;2023-06-24T07:29:30;23.20;99.90
51655;DHT22;37732;53.106;7.030;2023-06-24T07:31:56;23.10;99.90
51655;DHT22;37732;53.106;7.030;2023-06-24T07:34:22;23.10;99.90
51655;DHT22;37732;53.106;7.030;2023-06-24T07:36:47;23.20;99.90
51655;DHT22;37732;53.106;7.030;2023-06-24T07:39:13;23.20;99.90
51655;DHT22;37732;53.106;7.030;2023-06-24T07:41:38;23.40;99.90
51655;DHT22;37732;53.106;7.030;2023-06-24T07:44:04;23.40;99.90
51655;DHT22;37732;53.106;7.030;2023-06-24T07:46:29;23.40;99.90
51655;DHT22;37732;53.106;7.030;2023-06-24T07:48:55;23.50;99.90
51655;DHT22;37732;53.106;7.030;2023-06-24T07:51:21;23.70;99.90
51655;DHT22;37732;53.106;7.030;2023-06-24T07:53:47;23.80;99.90
51655;DHT22;37732;53.106;7.030;2023-06-24T07:56:12;23.90;99.90
51655;DHT22;37732;53.106;7.030;2023-06-24T07:58:38;24.00;99.90
51655;DHT22;37732;53.106;7.030;2023-06-24T08:01:04;24.10;99.90
51655;DHT22;37732;53.106;7.030;2023-06-24T08:03:29;24.40;99.90
51655;DHT22;37732;53.106;7.030;2023-06-24T08:05:55;24.50;99.90
51655;DHT22;37732;53.106;7.030;2023-06-24T08:08:21;24.60;99.90
51655;DHT22;37732;53.106;7.030;2023-06-24T08:10:47;24.90;99.90
51655;DHT22;37732;53.106;7.030;2023-06-24T08:13:13;24.90;99.90
51655;DHT22;37732;53.106;7.030;2023-06-24T08:15:38;25.10;99.90
51655;DHT22;37732;53.106;7.030;2023-06-24T08:18:04;25.00;99.90
51655;DHT22;37732;53.106;7.030;2023-06-24T08:20:29;25.00;99.90
51655;DHT22;37732;53.106;7.030;2023-06-24T08:22:55;24.90;99.90
51655;DHT22;37732;53.106;7.030;2023-06-24T08:25:20;24.80;99.90
51655;DHT22;37732;53.106;7.030;2023-06-24T08:27:46;24.80;99.90
51655;DHT22;37732;53.106;7.030;2023-06-24T08:30:12;25.00;99.90
51655;DHT22;37732;53.106;7.030;2023-06-24T08:32:38;25.10;99.90
51655;DHT22;37732;53.106;7.030;2023-06-24T08:35:06;25.10;99.90
51655;DHT22;37732;53.106;7.030;2023-06-24T08:37:31;25.10;99.90
51655;DHT22;37732;53.106;7.030;2023-06-24T08:39:57;25.10;99.90
51655;DHT22;37732;53.106;7.030;2023-06-24T08:42:22;25.10;99.90
51655;DHT22;37732;53.106;7.030;2023-06-24T08:44:48;25.20;99.90
51655;DHT22;37732;53.106;7.030;2023-06-24T08:47:14;25.20;99.90
51655;DHT22;37732;53.106;7.030;2023-06-24T08:49:46;25.20;99.90
51655;DHT22;37732;53.106;7.030;2023-06-24T08:52:14;25.20;99.90
51655;DHT22;37732;53.106;7.030;2023-06-24T08:54:41;25.30;99.90
51655;DHT22;37732;53.106;7.030;2023-06-24T08:57:06;25.30;99.90
51655;DHT22;37732;53.106;7.030;2023-06-24T08:59:33;25.60;99.90
51655;DHT22;37732;53.106;7.030;2023-06-24T09:01:59;25.80;99.90
51655;DHT22;37732;53.106;7.030;2023-06-24T09:04:25;25.80;99.90
51655;DHT22;37732;53.106;7.030;2023-06-24T09:06:50;25.80;99.50
51655;DHT22;37732;53.106;7.030;2023-06-24T09:09:20;25.80;99.90
51655;DHT22;37732;53.106;7.030;2023-06-24T09:11:57;25.90;99.90
51655;DHT22;37732;53.106;7.030;2023-06-24T09:14:26;26.10;99.90
51655;DHT22;37732;53.106;7.030;2023-06-24T09:16:56;26.30;99.10
51655;DHT22;37732;53.106;7.030;2023-06-24T09:19:22;26.50;99.80
51655;DHT22;37732;53.106;7.030;2023-06-24T09:21:48;26.80;99.90
51655;DHT22;37732;53.106;7.030;2023-06-24T09:24:13;27.00;99.90
51655;DHT22;37732;53.106;7.030;2023-06-24T09:26:41;27.20;99.10
51655;DHT22;37732;53.106;7.030;2023-06-24T09:29:07;27.30;97.00
51655;DHT22;37732;53.106;7.030;2023-06-24T09:31:33;27.50;97.40
51655;DHT22;37732;53.106;7.030;2023-06-24T09:33:59;27.50;96.70
51655;DHT22;37732;53.106;7.030;2023-06-24T09:36:24;27.30;96.00
51655;DHT22;37732;53.106;7.030;2023-06-24T09:38:50;27.10;96.30
51655;DHT22;37732;53.106;7.030;2023-06-24T09:41:16;27.00;95.60
51655;DHT22;37732;53.106;7.030;2023-06-24T09:43:42;26.90;97.90
51655;DHT22;37732;53.106;7.030;2023-06-24T09:46:10;26.90;96.80
51655;DHT22;37732;53.106;7.030;2023-06-24T09:48:35;26.90;97.40
51655;DHT22;37732;53.106;7.030;2023-06-24T09:51:04;27.00;96.20
51655;DHT22;37732;53.106;7.030;2023-06-24T09:53:31;27.20;96.70
51655;DHT22;37732;53.106;7.030;2023-06-24T09:55:57;27.40;97.20
51655;DHT22;37732;53.106;7.030;2023-06-24T09:58:24;27.80;98.40
51655;DHT22;37732;53.106;7.030;2023-06-24T10:00:49;28.10;97.60
51655;DHT22;37732;53.106;7.030;2023-06-24T10:03:16;28.10;94.30
51655;DHT22;37732;53.106;7.030;2023-06-24T10:05:41;28.10;94.80
51655;DHT22;37732;53.106;7.030;2023-06-24T10:08:08;28.00;93.90
51655;DHT22;37732;53.106;7.030;2023-06-24T10:10:34;28.10;94.70
51655;DHT22;37732;53.106;7.030;2023-06-24T10:13:00;28.00;92.40
51655;DHT22;37732;53.106;7.030;2023-06-24T10:15:25;28.10;91.90
51655;DHT22;37732;53.106;7.030;2023-06-24T10:17:51;28.00;93.40
51655;DHT22;37732;53.106;7.030;2023-06-24T10:20:26;28.00;91.90
51655;DHT22;37732;53.106;7.030;2023-06-24T10:22:51;28.30;93.10
51655;DHT22;37732;53.106;7.030;2023-06-24T10:25:17;28.10;92.90
51655;DHT22;37732;53.106;7.030;2023-06-24T10:27:43;28.30;94.30
51655;DHT22;37732;53.106;7.030;2023-06-24T10:30:16;28.70;94.40
51655;DHT22;37732;53.106;7.030;2023-06-24T10:32:42;28.80;93.10
51655;DHT22;37732;53.106;7.030;2023-06-24T10:35:20;28.80;90.00
51655;DHT22;37732;53.106;7.030;2023-06-24T10:37:53;28.80;92.10
51655;DHT22;37732;53.106;7.030;2023-06-24T10:40:33;28.70;87.40
51655;DHT22;37732;53.106;7.030;2023-06-24T10:42:59;28.40;87.20
51655;DHT22;37732;53.106;7.030;2023-06-24T10:45:24;28.20;92.50
51655;DHT22;37732;53.106;7.030;2023-06-24T10:47:50;28.20;90.70
51655;DHT22;37732;53.106;7.030;2023-06-24T10:50:19;28.30;91.00
51655;DHT22;37732;53.106;7.030;2023-06-24T10:52:45;28.50;86.00
51655;DHT22;37732;53.106;7.030;2023-06-24T10:55:15;28.80;91.10
51655;DHT22;37732;53.106;7.030;2023-06-24T10:57:41;29.10;91.30
51655;DHT22;37732;53.106;7.030;2023-06-24T11:00:07;29.20;85.30
51655;DHT22;37732;53.106;7.030;2023-06-24T11:02:32;29.30;90.10
51655;DHT22;37732;53.106;7.030;2023-06-24T11:04:59;29.60;88.60
51655;DHT22;37732;53.106;7.030;2023-06-24T11:07:32;29.80;83.80
51655;DHT22;37732;53.106;7.030;2023-06-24T11:10:03;30.00;90.40
51655;DHT22;37732;53.106;7.030;2023-06-24T11:12:31;30.10;81.40
51655;DHT22;37732;53.106;7.030;2023-06-24T11:15:00;30.20;82.90
51655;DHT22;37732;53.106;7.030;2023-06-24T11:17:26;30.40;83.30
51655;DHT22;37732;53.106;7.030;2023-06-24T11:19:52;30.60;85.10
51655;DHT22;37732;53.106;7.030;2023-06-24T11:22:18;30.50;82.60
51655;DHT22;37732;53.106;7.030;2023-06-24T11:24:43;30.50;81.60
51655;DHT22;37732;53.106;7.030;2023-06-24T11:27:09;30.40;72.60
51655;DHT22;37732;53.106;7.030;2023-06-24T11:29:35;30.50;83.50
51655;DHT22;37732;53.106;7.030;2023-06-24T11:32:01;30.70;84.20
51655;DHT22;37732;53.106;7.030;2023-06-24T11:34:27;30.80;77.60
51655;DHT22;37732;53.106;7.030;2023-06-24T11:36:52;31.00;79.30
51655;DHT22;37732;53.106;7.030;2023-06-24T11:39:24;30.80;79.90
51655;DHT22;37732;53.106;7.030;2023-06-24T11:41:51;30.50;70.80
51655;DHT22;37732;53.106;7.030;2023-06-24T11:44:17;30.50;76.60
51655;DHT22;37732;53.106;7.030;2023-06-24T11:46:42;30.40;76.10
51655;DHT22;37732;53.106;7.030;2023-06-24T11:49:08;30.50;72.70
51655;DHT22;37732;53.106;7.030;2023-06-24T11:51:34;30.60;74.90
51655;DHT22;37732;53.106;7.030;2023-06-24T11:54:02;30.70;71.90
51655;DHT22;37732;53.106;7.030;2023-06-24T11:56:41;31.10;76.50
51655;DHT22;37732;53.106;7.030;2023-06-24T11:59:16;31.00;69.40
51655;DHT22;37732;53.106;7.030;2023-06-24T12:01:45;30.90;64.10
51655;DHT22;37732;53.106;7.030;2023-06-24T12:04:14;31.00;66.60
51655;DHT22;37732;53.106;7.030;2023-06-24T12:06:40;30.80;68.10
51655;DHT22;37732;53.106;7.030;2023-06-24T12:09:06;30.80;69.20
51655;DHT22;37732;53.106;7.030;2023-06-24T12:11:31;31.00;75.70
51655;DHT22;37732;53.106;7.030;2023-06-24T12:13:57;31.20;71.00
51655;DHT22;37732;53.106;7.030;2023-06-24T12:16:22;31.20;62.70
51655;DHT22;37732;53.106;7.030;2023-06-24T12:18:50;31.10;66.30
51655;DHT22;37732;53.106;7.030;2023-06-24T12:21:16;30.90;66.10
51655;DHT22;37732;53.106;7.030;2023-06-24T12:23:41;31.00;71.50
51655;DHT22;37732;53.106;7.030;2023-06-24T12:26:07;30.90;67.90
51655;DHT22;37732;53.106;7.030;2023-06-24T12:28:32;30.80;69.50
51655;DHT22;37732;53.106;7.030;2023-06-24T12:30:58;31.00;71.70
51655;DHT22;37732;53.106;7.030;2023-06-24T12:33:23;31.20;74.70
51655;DHT22;37732;53.106;7.030;2023-06-24T12:35:49;31.50;71.40
51655;DHT22;37732;53.106;7.030;2023-06-24T12:38:14;31.70;68.10
51655;DHT22;37732;53.106;7.030;2023-06-24T12:40:41;31.80;69.30
51655;DHT22;37732;53.106;7.030;2023-06-24T12:43:07;31.50;61.30
51655;DHT22;37732;53.106;7.030;2023-06-24T12:45:32;31.80;63.30
51655;DHT22;37732;53.106;7.030;2023-06-24T12:47:58;31.50;62.80
51655;DHT22;37732;53.106;7.030;2023-06-24T12:50:25;31.10;65.80
51655;DHT22;37732;53.106;7.030;2023-06-24T12:52:50;30.80;64.70
51655;DHT22;37732;53.106;7.030;2023-06-24T12:55:16;30.80;69.60
51655;DHT22;37732;53.106;7.030;2023-06-24T12:57:41;30.60;68.00
51655;DHT22;37732;53.106;7.030;2023-06-24T13:00:07;30.70;67.60
51655;DHT22;37732;53.106;7.030;2023-06-24T13:02:34;30.90;64.20
51655;DHT22;37732;53.106;7.030;2023-06-24T13:04:59;30.70;63.10
51655;DHT22;37732;53.106;7.030;2023-06-24T13:07:25;30.70;68.20
51655;DHT22;37732;53.106;7.030;2023-06-24T13:09:50;30.50;69.20
51655;DHT22;37732;53.106;7.030;2023-06-24T13:12:16;30.50;71.00
51655;DHT22;37732;53.106;7.030;2023-06-24T13:14:41;30.50;71.10
51655;DHT22;37732;53.106;7.030;2023-06-24T13:17:07;30.50;72.40
51655;DHT22;37732;53.106;7.030;2023-06-24T13:19:32;30.70;72.90
51655;DHT22;37732;53.106;7.030;2023-06-24T13:21:58;30.70;71.00
51655;DHT22;37732;53.106;7.030;2023-06-24T13:24:24;30.70;68.10
51655;DHT22;37732;53.106;7.030;2023-06-24T13:26:51;30.50;61.80
51655;DHT22;37732;53.106;7.030;2023-06-24T13:29:16;29.90;62.30
51655;DHT22;37732;53.106;7.030;2023-06-24T13:31:42;29.60;65.40
51655;DHT22;37732;53.106;7.030;2023-06-24T13:34:07;29.60;68.50
51655;DHT22;37732;53.106;7.030;2023-06-24T13:36:34;29.80;70.30
51655;DHT22;37732;53.106;7.030;2023-06-24T13:39:03;30.10;71.70
51655;DHT22;37732;53.106;7.030;2023-06-24T13:41:29;30.20;68.30
51655;DHT22;37732;53.106;7.030;2023-06-24T13:43:57;30.20;71.00
51655;DHT22;37732;53.106;7.030;2023-06-24T13:46:23;30.30;72.20
51655;DHT22;37732;53.106;7.030;2023-06-24T13:48:49;30.30;71.80
51655;DHT22;37732;53.106;7.030;2023-06-24T13:51:15;30.20;71.30
51655;DHT22;37732;53.106;7.030;2023-06-24T13:53:41;30.10;70.20
51655;DHT22;37732;53.106;7.030;2023-06-24T13:56:06;30.10;75.20
51655;DHT22;37732;53.106;7.030;2023-06-24T13:58:32;29.90;73.50
51655;DHT22;37732;53.106;7.030;2023-06-24T14:00:58;29.70;72.70
51655;DHT22;37732;53.106;7.030;2023-06-24T14:03:23;29.60;68.10
51655;DHT22;37732;53.106;7.030;2023-06-24T14:05:49;29.40;71.90
51655;DHT22;37732;53.106;7.030;2023-06-24T14:08:14;29.20;71.30
51655;DHT22;37732;53.106;7.030;2023-06-24T14:10:40;29.00;72.80
51655;DHT22;37732;53.106;7.030;2023-06-24T14:13:05;29.00;75.40
51655;DHT22;37732;53.106;7.030;2023-06-24T14:15:31;29.10;76.80
51655;DHT22;37732;53.106;7.030;2023-06-24T14:17:56;29.00;80.40
51655;DHT22;37732;53.106;7.030;2023-06-24T14:20:22;28.90;84.10
51655;DHT22;37732;53.106;7.030;2023-06-24T14:22:50;28.90;85.50
51655;DHT22;37732;53.106;7.030;2023-06-24T14:25:15;28.90;86.80
51655;DHT22;37732;53.106;7.030;2023-06-24T14:27:41;28.90;88.40
51655;DHT22;37732;53.106;7.030;2023-06-24T14:30:07;28.80;89.70
51655;DHT22;37732;53.106;7.030;2023-06-24T14:32:32;28.70;90.10
51655;DHT22;37732;53.106;7.030;2023-06-24T14:34:58;28.60;90.40
51655;DHT22;37732;53.106;7.030;2023-06-24T14:37:24;28.60;90.40
51655;DHT22;37732;53.106;7.030;2023-06-24T14:39:49;28.60;90.70
51655;DHT22;37732;53.106;7.030;2023-06-24T14:42:15;28.50;91.00
51655;DHT22;37732;53.106;7.030;2023-06-24T14:44:40;28.50;91.70
51655;DHT22;37732;53.106;7.030;2023-06-24T14:47:06;28.50;91.70
51655;DHT22;37732;53.106;7.030;2023-06-24T14:49:32;28.50;91.50
51655;DHT22;37732;53.106;7.030;2023-06-24T14:51:57;28.50;91.70
51655;DHT22;37732;53.106;7.030;2023-06-24T14:54:23;28.50;91.90
51655;DHT22;37732;53.106;7.030;2023-06-24T14:56:48;28.40;92.10
51655;DHT22;37732;53.106;7.030;2023-06-24T14:59:14;28.40;92.50
51655;DHT22;37732;53.106;7.030;2023-06-24T15:01:39;28.40;92.70
51655;DHT22;37732;53.106;7.030;2023-06-24T15:04:05;28.50;92.00
51655;DHT22;37732;53.106;7.030;2023-06-24T15:06:30;28.60;92.80
51655;DHT22;37732;53.106;7.030;2023-06-24T15:08:56;28.70;93.20
51655;DHT22;37732;53.106;7.030;2023-06-24T15:11:21;28.90;92.70
51655;DHT22;37732;53.106;7.030;2023-06-24T15:13:47;29.20;92.40
51655;DHT22;37732;53.106;7.030;2023-06-24T15:16:12;29.30;91.90
51655;DHT22;37732;53.106;7.030;2023-06-24T15:18:45;29.10;91.40
51655;DHT22;37732;53.106;7.030;2023-06-24T15:21:11;29.10;91.40
51655;DHT22;37732;53.106;7.030;2023-06-24T15:23:37;29.00;91.40
51655;DHT22;37732;53.106;7.030;2023-06-24T15:26:02;29.00;91.60
51655;DHT22;37732;53.106;7.030;2023-06-24T15:28:28;29.00;92.10
51655;DHT22;37732;53.106;7.030;2023-06-24T15:30:54;29.10;91.30
51655;DHT22;37732;53.106;7.030;2023-06-24T15:33:20;29.30;91.60
51655;DHT22;37732;53.106;7.030;2023-06-24T15:35:46;29.50;91.20
51655;DHT22;37732;53.106;7.030;2023-06-24T15:38:11;29.60;91.00
51655;DHT22;37732;53.106;7.030;2023-06-24T15:40:40;29.90;90.40